Pickford, MI (49774)

5:32 PM EST on February 08, 2016 (GMT -0500)
Charlotte Beach | | Change Station
CLOSE
Current Station
Personal Weather Station
Location: Barbeau, MI
Elevation: 571 ft
Nearby Weather Stations

Elev 571 ft 46.31 °N, 84.22 °W | Updated 35 seconds ago

Overcast
Overcast
31.9 °F
Feels Like 32 °F
N
3.0
Wind Variable Wind from NE
Gusts 6.0 mph

Today
High -- | Low -- °F
--% Chance of Precip.
Yesterday
High -- | Low -- °F
Precip. -- in
Pressure 29.62 in
Visibility 10.0 miles
Clouds Overcast 600 ft
Windchill 32 °F
Dew Point 30 °F
Humidity 94%
Rainfall 0.11 in
Snow Depth Not available.
7:50 AM 5:51 PM
New Moon, 0% visible
METAR KCIU 082215Z AUTO 34011G17KT 10SM OVC006 M01/M01 A2962 RMK AO1
Pressure 29.62 in
Visibility 10.0 miles
Clouds Overcast 600 ft
Windchill 32 °F
Dew Point 30 °F
Humidity 94%
Rainfall 0.11 in
Snow Depth Not available.
7:50 AM 5:51 PM
New Moon, 0% visible
METAR KCIU 082215Z AUTO 34011G17KT 10SM OVC006 M01/M01 A2962 RMK AO1

10-Day Weather Forecast

Almanac

Astronomy

Feb. 08, 2016 Rise Set
Actual Time
Civil Twilight
Nautical Twilight
Astronomical Twilight
Moon
Length of Visible Light
Length of Day
Tomorrow will be .
, % of the Moon is Illuminated

Today's Extremes

State Highs State Lows

Community

WunderPhotos

Upload Photos

1,891,518 photos uploaded!

WunderBlog® & News

Nearby

Air Quality

  Air Quality AQ Index Pollutant
Not available.

Snow Depth

Station Depth Elevation

Earthquake Activity

City Distance Mag. Time & Date
Minimum magnitude displayed is 2.5.

Coastal Water Temperatures

Place Temperature

Stations

Nearby Weather Stations

Station Location Temp. Windchill Dew Point Humidity Wind Precip. Elev Updated Type
                   

Watches & Warnings

There are currently no watches in effect.